Arcadia, Ohio
Current Conditions -  °F | °C
As of 12:53 PM on Friday 21 Nov 2014 (Local Time) from KFDY Reporting Station
Few Clouds Few Clouds  
Wind Chill: 18°   Ceiling: Unl
Heat Index: 25°   Visibility: 10mi
Dew Point: 11°   Wind: 6mph
Humidity: 55%   Direction: NA
Pressure: 30.49"   Gusts: NA
Location:  41.11°N, 83.52°W
Report Text: KFDY 211753Z AUTO VRB05KT 10SM FEW028 M04/M12 A3049 RMK AO2 SLP335 T10391117 11033 21122 50007
Loading
Personal Weather Stations






























Interactive Weather Map New forecast layout! Learn more

10-Day Weather Forecast

Advertisements
Track Severe Weather on mobile